Time;durP1;ratioP1;P1;durP2;ratioP2;P2;SDS_P1;SDS_P2;PMS_P1;PMS_P2;Temp;Humidity;BMP_temperature;BMP_pressure;BME280_temperature;BME280_humidity;BME280_pressure;Samples;Min_cycle;Max_cycle;Signal;HPM_P1;HPM_P2
2022/08/19 00:01:38;;;;;;;10.05;9.25;;;25.20;59.40;;;;;;5013853;28;20454;-74
2022/08/19 00:04:06;;;;;;;9.65;8.85;;;25.20;59.40;;;;;;4996042;28;20492;-74
2022/08/19 00:06:33;;;;;;;10.07;9.18;;;25.10;59.40;;;;;;4996031;28;20845;-74
2022/08/19 00:09:02;;;;;;;10.30;9.40;;;25.10;59.40;;;;;;5013766;28;20389;-73
2022/08/19 00:11:27;;;;;;;9.35;8.60;;;25.10;59.40;;;;;;5013567;28;20809;-74
2022/08/19 00:13:56;;;;;;;10.77;9.95;;;25.10;59.40;;;;;;5012375;28;20425;-74
2022/08/19 00:16:24;;;;;;;10.00;9.20;;;25.10;59.40;;;;;;5013576;28;20455;-73
2022/08/19 00:18:50;;;;;;;10.15;9.20;;;25.10;59.40;;;;;;5012204;28;20796;-73
2022/08/19 00:21:16;;;;;;;10.70;9.77;;;25.10;59.40;;;;;;5013271;28;20400;-73
2022/08/19 00:23:42;;;;;;;10.35;9.55;;;25.10;59.50;;;;;;5013197;28;20385;-73
2022/08/19 00:26:09;;;;;;;10.52;9.73;;;25.10;59.50;;;;;;5013136;28;20420;-74
2022/08/19 00:28:35;;;;;;;10.02;9.23;;;25.10;59.40;;;;;;4995514;28;20381;-74
2022/08/19 00:31:02;;;;;;;9.90;9.10;;;25.10;59.50;;;;;;5013372;28;20393;-73
2022/08/19 00:33:32;;;;;;;10.45;9.55;;;25.10;59.50;;;;;;5013247;28;20424;-74
2022/08/19 00:35:58;;;;;;;10.77;9.80;;;25.10;59.50;;;;;;5013303;28;20397;-73
2022/08/19 00:38:24;;;;;;;10.75;9.85;;;25.10;59.50;;;;;;5013081;28;20404;-74
2022/08/19 00:40:50;;;;;;;10.02;9.13;;;25.10;59.50;;;;;;4995550;28;20719;-74
2022/08/19 00:43:19;;;;;;;10.50;9.53;;;25.10;59.50;;;;;;5013085;28;20907;-73
2022/08/19 00:45:45;;;;;;;10.20;9.40;;;25.10;59.60;;;;;;5012926;28;20439;-73
2022/08/19 00:48:11;;;;;;;10.20;9.30;;;25.10;59.50;;;;;;5012932;28;20401;-73
2022/08/19 00:50:40;;;;;;;9.88;9.18;;;25.10;59.60;;;;;;5012951;28;20415;-74
2022/08/19 00:53:07;;;;;;;9.75;8.95;;;25.10;59.60;;;;;;5012904;28;20895;-73
2022/08/19 00:55:33;;;;;;;9.75;8.95;;;25.10;59.60;;;;;;5011596;28;20417;-74
2022/08/19 00:58:06;;;;;;;10.40;9.60;;;25.10;59.60;;;;;;5012929;28;20462;-74
2022/08/19 01:00:37;;;;;;;10.17;9.37;;;25.00;59.60;;;;;;4995226;28;20425;-73
2022/08/19 01:03:07;;;;;;;10.40;9.50;;;25.10;59.60;;;;;;5012896;28;20459;-74
2022/08/19 01:05:34;;;;;;;10.60;9.70;;;25.10;59.70;;;;;;4995114;28;20416;-73
2022/08/19 01:08:04;;;;;;;9.90;9.20;;;25.10;59.60;;;;;;4995050;28;20400;-73
2022/08/19 01:10:33;;;;;;;9.95;9.15;;;25.10;59.60;;;;;;5012591;28;20381;-74
2022/08/19 01:13:01;;;;;;;10.68;9.82;;;25.10;59.60;;;;;;4995042;28;20400;-74
2022/08/19 01:15:32;;;;;;;10.18;9.38;;;25.00;59.70;;;;;;5012425;28;20385;-73
2022/08/19 01:18:00;;;;;;;10.82;9.93;;;25.10;59.60;;;;;;5012496;28;20401;-74
2022/08/19 01:20:26;;;;;;;10.77;9.88;;;25.10;59.70;;;;;;5012485;28;20429;-74
2022/08/19 01:22:55;;;;;;;10.50;9.60;;;25.00;59.60;;;;;;5012561;28;20388;-73
2022/08/19 01:25:28;;;;;;;10.50;9.70;;;25.00;59.60;;;;;;5012347;28;20417;-73
2022/08/19 01:27:53;;;;;;;10.40;9.50;;;25.00;59.60;;;;;;5012410;28;20401;-74
2022/08/19 01:30:27;;;;;;;10.40;9.60;;;25.00;59.60;;;;;;5012468;28;20748;-74
2022/08/19 01:32:54;;;;;;;10.63;9.73;;;25.00;59.60;;;;;;5012350;28;20789;-73
2022/08/19 01:35:23;;;;;;;10.90;10.10;;;25.00;59.60;;;;;;4994522;28;20412;-73
2022/08/19 01:38:02;;;;;;;10.80;10.00;;;25.00;59.60;;;;;;5011780;28;20408;-73
2022/08/19 01:40:30;;;;;;;10.70;9.90;;;25.00;59.60;;;;;;5011924;28;20765;-73
2022/08/19 01:42:57;;;;;;;10.73;9.93;;;25.00;59.70;;;;;;5012222;28;20451;-74
2022/08/19 01:45:24;;;;;;;10.57;9.85;;;25.00;59.70;;;;;;5011893;28;20417;-75
2022/08/19 01:47:50;;;;;;;10.40;9.60;;;25.00;59.70;;;;;;5012077;28;20832;-74
2022/08/19 01:50:17;;;;;;;10.93;10.02;;;25.00;59.70;;;;;;5012095;28;20484;-74
2022/08/19 01:52:44;;;;;;;10.47;9.67;;;25.00;59.70;;;;;;5011876;28;20393;-74
2022/08/19 01:55:14;;;;;;;10.70;9.88;;;25.00;59.70;;;;;;5010905;28;20882;-73
2022/08/19 01:57:43;;;;;;;10.10;9.30;;;25.00;59.70;;;;;;5012075;28;20746;-74
2022/08/19 02:00:13;;;;;;;10.23;9.43;;;25.00;59.70;;;;;;5012156;28;20955;-74
2022/08/19 02:02:39;;;;;;;10.70;9.90;;;25.00;59.70;;;;;;5011997;28;20535;-73
2022/08/19 02:05:06;;;;;;;10.57;9.77;;;25.00;59.80;;;;;;5012027;28;20484;-73
2022/08/19 02:07:32;;;;;;;10.50;9.63;;;25.00;59.80;;;;;;4994367;28;20409;-75
2022/08/19 02:09:58;;;;;;;10.57;9.75;;;25.00;59.80;;;;;;5012038;28;20396;-73
2022/08/19 02:12:24;;;;;;;9.70;9.00;;;25.00;59.80;;;;;;4994294;28;20397;-74
2022/08/19 02:14:49;;;;;;;10.15;9.35;;;25.00;59.80;;;;;;5011905;28;20389;-73
2022/08/19 02:17:15;;;;;;;10.77;9.97;;;25.00;59.80;;;;;;5011613;28;20910;-74
2022/08/19 02:19:40;;;;;;;9.97;9.20;;;25.00;59.80;;;;;;5010551;28;20407;-73
2022/08/19 02:22:06;;;;;;;9.60;8.90;;;25.00;59.80;;;;;;5010359;28;20399;-73
2022/08/19 02:24:32;;;;;;;10.67;9.80;;;25.00;59.90;;;;;;5011515;28;20483;-74
2022/08/19 02:26:58;;;;;;;10.90;10.10;;;25.00;59.80;;;;;;5011764;28;20816;-73
2022/08/19 02:29:24;;;;;;;10.30;9.50;;;25.00;59.80;;;;;;4994154;28;20957;-73
2022/08/19 02:31:50;;;;;;;9.75;9.05;;;25.00;59.80;;;;;;5011762;28;20404;-74
2022/08/19 02:34:16;;;;;;;10.35;9.63;;;24.90;59.80;;;;;;5011811;28;20508;-74
2022/08/19 02:36:42;;;;;;;10.98;10.18;;;24.90;59.80;;;;;;5011592;28;20407;-73
2022/08/19 02:39:07;;;;;;;9.80;9.00;;;24.90;59.80;;;;;;4993952;28;20592;-74
2022/08/19 02:41:34;;;;;;;9.63;8.90;;;24.90;59.80;;;;;;5011701;28;20396;-74
2022/08/19 02:44:01;;;;;;;9.50;8.80;;;24.90;59.80;;;;;;5011645;28;20401;-73
2022/08/19 02:46:29;;;;;;;10.70;9.90;;;25.00;59.90;;;;;;5011546;28;20444;-74
2022/08/19 02:48:59;;;;;;;10.43;9.63;;;24.90;59.80;;;;;;5011635;28;20389;-73
2022/08/19 02:51:28;;;;;;;10.00;9.20;;;24.90;59.90;;;;;;5014517;28;20443;-73
2022/08/19 02:53:54;;;;;;;10.68;9.80;;;25.00;60.00;;;;;;5015128;28;20381;-73
2022/08/19 02:56:20;;;;;;;10.32;9.52;;;24.90;59.90;;;;;;5015107;28;20416;-74
2022/08/19 02:58:46;;;;;;;9.88;9.07;;;24.90;59.90;;;;;;5015046;28;20438;-74
2022/08/19 03:01:20;;;;;;;10.80;10.00;;;24.90;59.90;;;;;;5014992;28;20388;-74
2022/08/19 03:03:46;;;;;;;10.95;10.05;;;24.90;60.00;;;;;;5014773;28;20400;-74
2022/08/19 03:06:14;;;;;;;11.05;10.15;;;24.90;59.90;;;;;;5014826;28;20425;-74
2022/08/19 03:08:45;;;;;;;10.20;9.40;;;24.90;60.00;;;;;;5014912;28;20589;-74
2022/08/19 03:11:21;;;;;;;11.18;10.27;;;24.90;60.00;;;;;;5014704;28;20528;-74
2022/08/19 03:13:50;;;;;;;10.80;9.90;;;24.90;60.20;;;;;;5014774;28;20450;-74
2022/08/19 03:16:16;;;;;;;10.05;9.15;;;24.90;60.10;;;;;;5014770;28;20772;-74
2022/08/19 03:18:42;;;;;;;11.20;10.20;;;24.90;60.00;;;;;;5014639;28;20778;-73
2022/08/19 03:21:08;;;;;;;10.65;9.15;;;24.90;61.40;;;;;;4997430;28;20393;-73
2022/08/19 03:23:35;;;;;;;12.65;8.98;;;24.90;60.30;;;;;;5015060;28;20397;-73
2022/08/19 03:26:04;;;;;;;13.30;9.70;;;25.00;62.70;;;;;;5013030;28;20420;-74
2022/08/19 03:28:30;;;;;;;11.00;9.63;;;25.00;63.00;;;;;;4995352;28;20389;-73
2022/08/19 03:31:03;;;;;;;14.60;10.57;;;25.00;62.70;;;;;;5013851;28;20403;-74
2022/08/19 03:33:29;;;;;;;10.80;9.45;;;25.10;63.10;;;;;;4996498;28;20443;-73
2022/08/19 03:36:07;;;;;;;11.65;10.45;;;25.20;62.90;;;;;;5014281;28;20401;-73
2022/08/19 03:38:33;;;;;;;11.95;10.15;;;25.20;63.00;;;;;;4996471;28;20420;-73
2022/08/19 03:41:06;;;;;;;10.48;9.57;;;25.30;62.90;;;;;;5014969;28;20860;-74
2022/08/19 03:43:33;;;;;;;10.57;9.48;;;25.30;63.20;;;;;;5014306;28;20392;-73
2022/08/19 03:46:08;;;;;;;10.57;9.13;;;25.30;62.40;;;;;;5012858;28;20412;-74
2022/08/19 03:48:34;;;;;;;16.75;8.95;;;25.30;63.30;;;;;;4996183;28;20401;-74
2022/08/19 03:51:00;;;;;;;14.88;8.85;;;25.30;63.30;;;;;;5013699;28;20480;-75
2022/08/19 03:53:27;;;;;;;15.65;9.70;;;25.30;62.90;;;;;;4995984;28;20393;-73
2022/08/19 03:55:55;;;;;;;10.85;8.75;;;25.30;62.80;;;;;;4996585;28;20865;-75
2022/08/19 03:58:21;;;;;;;11.00;8.75;;;25.30;62.80;;;;;;5013462;28;20857;-75
2022/08/19 04:00:47;;;;;;;11.93;8.48;;;25.30;63.00;;;;;;5013840;28;20397;-73
2022/08/19 04:03:12;;;;;;;12.77;11.57;;;25.30;63.00;;;;;;5011675;28;20397;-74
2022/08/19 04:05:38;;;;;;;11.73;9.87;;;25.30;62.80;;;;;;5013274;28;20429;-74
2022/08/19 04:08:05;;;;;;;12.93;11.38;;;25.30;61.60;;;;;;5012570;28;20423;-74
2022/08/19 04:10:36;;;;;;;13.55;10.82;;;25.30;62.80;;;;;;5013697;28;20432;-74
2022/08/19 04:13:03;;;;;;;12.60;11.27;;;25.30;62.40;;;;;;4996159;28;20388;-74
2022/08/19 04:15:31;;;;;;;13.33;12.00;;;25.30;62.60;;;;;;5012226;28;20501;-73
2022/08/19 04:17:56;;;;;;;12.60;11.35;;;25.30;62.80;;;;;;4995959;28;20401;-74
2022/08/19 04:20:22;;;;;;;13.50;12.20;;;25.30;62.90;;;;;;5013427;28;20396;-73
2022/08/19 04:22:47;;;;;;;13.88;12.35;;;25.30;63.10;;;;;;4995765;28;20488;-73
2022/08/19 04:25:13;;;;;;;13.13;11.73;;;25.30;63.20;;;;;;5012055;28;20901;-73
2022/08/19 04:27:39;;;;;;;13.30;12.10;;;25.20;62.80;;;;;;5013275;28;20773;-73
2022/08/19 04:30:05;;;;;;;16.10;13.18;;;25.20;62.90;;;;;;4995859;28;20389;-73
2022/08/19 04:32:31;;;;;;;17.05;13.05;;;25.20;63.00;;;;;;5012020;28;20397;-73
2022/08/19 04:34:58;;;;;;;14.82;12.48;;;25.20;63.10;;;;;;5013264;28;20900;-73
2022/08/19 04:37:26;;;;;;;14.83;12.17;;;25.20;62.10;;;;;;5013034;28;20413;-71
2022/08/19 04:42:38;;;;;;;14.10;12.52;;;25.10;62.10;;;;;;5013164;28;20419;-73
2022/08/19 04:45:10;;;;;;;13.68;12.18;;;25.10;62.60;;;;;;5013110;28;20432;-71
2022/08/19 04:47:45;;;;;;;17.30;12.20;;;25.10;63.10;;;;;;5012922;28;20964;-72
2022/08/19 04:50:11;;;;;;;19.10;13.63;;;25.10;63.00;;;;;;5012989;28;20395;-71
2022/08/19 04:52:43;;;;;;;16.80;13.13;;;25.10;63.20;;;;;;5012808;28;20916;-71
2022/08/19 04:55:10;;;;;;;19.08;14.25;;;25.10;63.10;;;;;;5012817;28;20442;-73
2022/08/19 04:57:43;;;;;;;17.98;14.65;;;25.10;63.50;;;;;;4994684;28;20405;-72
2022/08/19 05:00:09;;;;;;;17.05;14.05;;;25.10;63.80;;;;;;5012462;28;20853;-73
2022/08/19 05:02:35;;;;;;;17.27;14.70;;;25.10;64.50;;;;;;4994928;28;20800;-73
2022/08/19 05:05:01;;;;;;;17.33;13.30;;;25.10;62.70;;;;;;5010856;28;20546;-73
2022/08/19 05:07:27;;;;;;;17.37;13.50;;;25.00;64.00;;;;;;5012631;28;21034;-73
2022/08/19 05:09:53;;;;;;;16.13;13.75;;;25.00;65.10;;;;;;5012245;28;20393;-73
2022/08/19 05:12:19;;;;;;;15.17;12.80;;;25.00;63.30;;;;;;5012623;28;20396;-73
2022/08/19 05:14:46;;;;;;;16.55;13.20;;;25.00;62.90;;;;;;5011245;28;20408;-73
2022/08/19 05:17:13;;;;;;;14.40;12.90;;;25.00;62.90;;;;;;4994962;28;20397;-72
2022/08/19 05:22:32;;;;;;;17.02;13.55;;;25.00;63.40;;;;;;5012202;28;20387;-71
2022/08/19 05:24:58;;;;;;;18.77;14.85;;;25.00;64.40;;;;;;5012177;28;20400;-71
2022/08/19 05:27:24;;;;;;;16.60;14.90;;;25.00;63.50;;;;;;5011774;28;20413;-72
2022/08/19 05:29:50;;;;;;;16.67;14.77;;;25.00;63.70;;;;;;5012095;28;20385;-70
2022/08/19 05:32:16;;;;;;;15.90;14.40;;;25.00;64.20;;;;;;5010289;28;20483;-72
2022/08/19 05:34:41;;;;;;;15.27;13.77;;;25.00;63.50;;;;;;4994292;28;20389;-70
2022/08/19 05:37:08;;;;;;;15.07;13.47;;;25.00;65.70;;;;;;5010863;28;20423;-70
2022/08/19 05:39:36;;;;;;;15.60;14.02;;;25.00;65.10;;;;;;5012179;28;20447;-71
2022/08/19 05:42:08;;;;;;;17.00;15.40;;;25.00;64.10;;;;;;4994572;28;20459;-69
2022/08/19 05:44:39;;;;;;;15.80;14.30;;;25.00;64.10;;;;;;4994204;28;20774;-70
2022/08/19 05:47:08;;;;;;;15.90;14.40;;;25.00;64.60;;;;;;4994314;28;20516;-70
2022/08/19 05:49:36;;;;;;;16.90;15.35;;;25.00;63.80;;;;;;4993508;28;20429;-72
2022/08/19 05:52:05;;;;;;;16.55;15.15;;;25.00;64.80;;;;;;5011505;28;20389;-70
2022/08/19 05:54:31;;;;;;;16.00;14.32;;;25.00;65.10;;;;;;5011493;28;20393;-70
2022/08/19 05:56:57;;;;;;;16.20;13.40;;;25.00;64.70;;;;;;5011983;28;20389;-70
2022/08/19 05:59:23;;;;;;;15.35;13.73;;;25.00;65.70;;;;;;5011569;28;20385;-70
2022/08/19 06:01:50;;;;;;;15.23;13.68;;;24.90;66.40;;;;;;5011777;28;20396;-70
2022/08/19 06:04:18;;;;;;;15.13;13.13;;;24.90;66.60;;;;;;5011147;28;20385;-70
2022/08/19 06:06:45;;;;;;;15.68;13.98;;;24.80;66.70;;;;;;4994084;28;20420;-70
2022/08/19 06:09:12;;;;;;;15.88;14.18;;;24.80;67.10;;;;;;5009929;28;20881;-70
2022/08/19 06:11:41;;;;;;;15.85;14.15;;;24.80;67.10;;;;;;5011339;28;20879;-70
2022/08/19 06:14:10;;;;;;;16.10;13.82;;;24.80;67.30;;;;;;5010767;28;20869;-70
2022/08/19 06:16:38;;;;;;;16.13;14.52;;;24.80;67.80;;;;;;5011724;28;20388;-70
2022/08/19 06:19:08;;;;;;;16.67;15.02;;;24.80;67.60;;;;;;5011453;28;20915;-73
2022/08/19 06:21:40;;;;;;;15.50;13.88;;;24.80;67.60;;;;;;4994116;28;20405;-70
2022/08/19 06:24:08;;;;;;;15.30;13.38;;;24.70;67.50;;;;;;5011514;28;20389;-70
2022/08/19 06:26:35;;;;;;;17.70;14.85;;;24.80;67.40;;;;;;5014383;28;20490;-70
2022/08/19 06:29:04;;;;;;;16.40;14.80;;;24.70;67.30;;;;;;5015542;28;20440;-70
2022/08/19 06:31:33;;;;;;;15.98;14.35;;;24.70;67.00;;;;;;5014659;28;20395;-71
2022/08/19 06:34:02;;;;;;;17.02;15.23;;;24.70;67.00;;;;;;5015555;28;20420;-70
2022/08/19 06:36:33;;;;;;;16.35;14.65;;;24.70;67.40;;;;;;5015459;28;20389;-71
2022/08/19 06:39:01;;;;;;;16.40;14.68;;;24.60;67.40;;;;;;5015185;28;20955;-71
2022/08/19 06:41:28;;;;;;;17.00;15.20;;;24.60;67.00;;;;;;4997028;28;20934;-71
2022/08/19 06:43:55;;;;;;;16.02;14.32;;;24.60;67.10;;;;;;5015151;28;20396;-71
2022/08/19 06:46:21;;;;;;;17.20;15.32;;;24.60;67.00;;;;;;5013504;28;20788;-71
2022/08/19 06:48:47;;;;;;;16.55;14.80;;;24.60;67.40;;;;;;5014847;28;20483;-71
2022/08/19 06:51:18;;;;;;;17.08;15.05;;;24.60;67.30;;;;;;5013611;28;20385;-71
2022/08/19 06:53:54;;;;;;;16.63;14.88;;;24.50;67.50;;;;;;5014561;28;20400;-71
2022/08/19 06:56:22;;;;;;;17.00;15.38;;;24.50;67.10;;;;;;4997091;28;20388;-71
2022/08/19 06:58:52;;;;;;;16.70;15.20;;;24.50;67.10;;;;;;4996926;28;20488;-71
2022/08/19 07:01:20;;;;;;;17.30;15.57;;;24.60;66.80;;;;;;5014653;28;20405;-71
2022/08/19 07:03:46;;;;;;;17.77;16.08;;;24.60;66.80;;;;;;5015004;28;20409;-71
2022/08/19 07:06:17;;;;;;;17.77;16.05;;;24.70;66.50;;;;;;5014084;28;20412;-71
2022/08/19 07:08:46;;;;;;;17.17;15.50;;;24.70;66.30;;;;;;5014429;28;20411;-71
2022/08/19 07:11:13;;;;;;;15.85;14.35;;;24.70;66.30;;;;;;5014509;28;20381;-70
2022/08/19 07:13:43;;;;;;;17.02;15.25;;;24.70;66.50;;;;;;4996960;28;20917;-70
2022/08/19 07:16:11;;;;;;;18.70;15.70;;;24.70;66.20;;;;;;5014757;28;20389;-72
2022/08/19 07:18:38;;;;;;;16.30;14.70;;;24.70;66.50;;;;;;5014592;28;20881;-72
2022/08/19 07:21:13;;;;;;;17.80;15.93;;;24.70;66.50;;;;;;5014678;28;20400;-70
2022/08/19 07:23:39;;;;;;;17.83;16.13;;;24.70;66.70;;;;;;5014399;28;20901;-71
2022/08/19 07:26:15;;;;;;;18.00;16.00;;;24.70;66.60;;;;;;5014523;28;20464;-70
2022/08/19 07:28:43;;;;;;;17.40;15.57;;;24.70;66.50;;;;;;5014516;28;20377;-70
2022/08/19 07:31:12;;;;;;;17.20;15.50;;;24.70;66.10;;;;;;5014478;28;20401;-70
2022/08/19 07:33:38;;;;;;;19.33;17.25;;;24.70;65.80;;;;;;5011370;28;20401;-70
2022/08/19 07:36:11;;;;;;;17.50;15.70;;;24.70;66.80;;;;;;5009040;28;21084;-72
2022/08/19 07:38:39;;;;;;;18.40;15.38;;;24.80;66.00;;;;;;4980823;28;20414;-71
2022/08/19 07:41:06;;;;;;;17.77;15.98;;;24.80;65.80;;;;;;5009641;28;20401;-71
2022/08/19 07:43:32;;;;;;;16.85;15.25;;;24.80;66.10;;;;;;5013979;28;20389;-71
2022/08/19 07:45:59;;;;;;;18.23;16.33;;;24.80;66.10;;;;;;5013755;28;20404;-71
2022/08/19 07:48:26;;;;;;;17.90;16.15;;;24.70;65.90;;;;;;4995944;28;20490;-71
2022/08/19 07:51:01;;;;;;;17.73;16.02;;;24.70;65.70;;;;;;4996436;28;20439;-70
2022/08/19 07:53:29;;;;;;;19.13;17.20;;;24.80;65.80;;;;;;4995682;28;20445;-70
2022/08/19 07:56:02;;;;;;;17.70;16.02;;;24.80;65.30;;;;;;4976760;28;20413;-70
2022/08/19 07:58:30;;;;;;;16.98;15.27;;;24.70;65.40;;;;;;4994233;28;20390;-70
2022/08/19 08:00:56;;;;;;;14.32;13.13;;;24.70;65.80;;;;;;4994259;28;20395;-74
2022/08/19 08:09:10;;;;;;;14.63;13.23;;;24.80;65.60;;;;;;4992783;28;20493;-71
2022/08/19 08:09:20;;;;;;;13.73;12.55;;;24.70;65.60;;;;;;4994450;28;20525;-70
2022/08/19 08:11:59;;;;;;;13.30;11.93;;;24.70;65.50;;;;;;4976594;28;20413;-70
2022/08/19 08:14:37;;;;;;;13.27;12.10;;;24.80;64.90;;;;;;4992777;28;20407;-70
2022/08/19 08:17:05;;;;;;;12.25;11.15;;;24.80;65.20;;;;;;4993955;28;20418;-70
2022/08/19 08:19:31;;;;;;;12.70;11.60;;;24.80;65.10;;;;;;4993883;28;20484;-71
2022/08/19 08:22:00;;;;;;;11.93;11.05;;;24.80;65.10;;;;;;4976482;28;20382;-70
2022/08/19 08:24:30;;;;;;;11.52;10.57;;;24.80;65.20;;;;;;4993589;28;20537;-70
2022/08/19 08:26:59;;;;;;;12.32;11.43;;;24.80;65.10;;;;;;4993711;28;20476;-70
2022/08/19 08:29:29;;;;;;;11.52;10.63;;;24.80;65.00;;;;;;5005833;28;20488;-72
2022/08/19 08:31:56;;;;;;;10.77;9.98;;;24.80;65.00;;;;;;5013003;28;20749;-70
2022/08/19 08:34:23;;;;;;;9.97;9.17;;;24.80;64.90;;;;;;5012729;28;20436;-71
2022/08/19 08:36:51;;;;;;;10.65;9.82;;;24.80;64.80;;;;;;5012835;28;20392;-70
2022/08/19 08:39:20;;;;;;;10.18;9.43;;;24.80;64.90;;;;;;5012735;28;20405;-70
2022/08/19 08:42:22;;;;;;;9.70;9.00;;;24.80;65.00;;;;;;5012515;28;20419;-70
2022/08/19 08:45:00;;;;;;;10.90;10.05;;;24.80;64.60;;;;;;5012816;28;20877;-71
2022/08/19 08:47:37;;;;;;;10.63;9.82;;;24.80;64.70;;;;;;5012401;28;20508;-71
2022/08/19 08:50:11;;;;;;;9.73;8.93;;;24.80;64.80;;;;;;5012987;28;20393;-71
2022/08/19 08:52:42;;;;;;;10.40;9.40;;;24.80;64.60;;;;;;5013017;28;20469;-71
2022/08/19 08:55:19;;;;;;;9.40;8.60;;;24.80;64.70;;;;;;5012849;28;20389;-70
2022/08/19 08:57:48;;;;;;;9.63;8.93;;;24.80;64.00;;;;;;5012786;28;20389;-71
2022/08/19 09:00:21;;;;;;;9.90;9.10;;;24.80;64.50;;;;;;5012822;28;20475;-71
2022/08/19 09:02:48;;;;;;;9.23;8.43;;;24.80;64.40;;;;;;5012897;28;20768;-71
2022/08/19 09:05:14;;;;;;;9.52;8.70;;;24.80;64.40;;;;;;5012692;28;20502;-70
2022/08/19 09:08:00;;;;;;;10.20;9.27;;;24.80;64.40;;;;;;5012624;28;20421;-71
2022/08/19 09:10:42;;;;;;;10.13;9.32;;;24.80;64.70;;;;;;5012534;28;20389;-71
2022/08/19 09:13:14;;;;;;;11.90;10.90;;;24.80;64.70;;;;;;4994934;28;20757;-70
2022/08/19 09:15:45;;;;;;;10.83;10.03;;;24.80;64.40;;;;;;5011312;28;20393;-70
2022/08/19 09:18:11;;;;;;;12.27;11.30;;;24.80;64.70;;;;;;5012615;28;20428;-70
2022/08/19 09:20:37;;;;;;;12.30;11.30;;;24.80;64.70;;;;;;4994830;28;20389;-71
2022/08/19 09:23:03;;;;;;;13.10;12.00;;;24.80;64.40;;;;;;5012528;28;20392;-70
2022/08/19 09:25:32;;;;;;;11.82;10.77;;;24.80;65.20;;;;;;4994590;28;20483;-70
2022/08/19 09:28:02;;;;;;;12.13;11.18;;;24.80;64.70;;;;;;5011890;28;20407;-70
2022/08/19 09:30:30;;;;;;;11.75;10.85;;;24.80;64.10;;;;;;4991650;28;20398;-70
2022/08/19 09:32:56;;;;;;;10.98;10.07;;;24.80;64.70;;;;;;4992734;28;20402;-70
2022/08/19 09:35:25;;;;;;;10.45;9.55;;;24.90;64.40;;;;;;4992638;28;20465;-70
2022/08/19 09:37:52;;;;;;;11.40;10.60;;;24.90;64.60;;;;;;4971885;28;20459;-71
2022/08/19 09:40:18;;;;;;;10.30;9.50;;;24.90;65.00;;;;;;4971891;28;20778;-70
2022/08/19 09:42:48;;;;;;;10.77;9.98;;;24.90;65.20;;;;;;4973426;28;20388;-72
2022/08/19 09:45:16;;;;;;;10.00;9.30;;;24.90;65.20;;;;;;4972035;28;20805;-71
2022/08/19 09:47:42;;;;;;;11.23;10.23;;;24.90;64.30;;;;;;4971751;28;20424;-71
2022/08/19 09:50:11;;;;;;;10.43;9.50;;;24.90;64.40;;;;;;4971889;28;20411;-71
2022/08/19 09:52:37;;;;;;;10.27;9.48;;;25.00;64.80;;;;;;4971714;28;20462;-70
2022/08/19 09:55:08;;;;;;;10.63;9.73;;;25.00;64.20;;;;;;4971788;28;20927;-72
2022/08/19 09:57:34;;;;;;;10.20;9.40;;;24.90;64.40;;;;;;4972940;28;20459;-71
2022/08/19 10:00:00;;;;;;;10.70;9.70;;;25.00;64.70;;;;;;4973906;28;20873;-70
2022/08/19 10:02:26;;;;;;;11.52;10.45;;;25.00;64.40;;;;;;4976952;28;20392;-70
2022/08/19 10:07:37;;;;;;;10.75;9.85;;;25.00;64.20;;;;;;4976884;28;20536;-71
2022/08/19 10:10:07;;;;;;;9.75;8.95;;;25.00;63.90;;;;;;4976791;28;20391;-71
2022/08/19 10:12:34;;;;;;;10.93;9.82;;;25.00;64.30;;;;;;4976817;28;20451;-70
2022/08/19 10:15:00;;;;;;;11.20;10.30;;;25.00;64.20;;;;;;4978152;28;20392;-72
2022/08/19 10:17:27;;;;;;;13.23;12.02;;;25.00;64.10;;;;;;4982446;28;20500;-72
2022/08/19 10:19:53;;;;;;;13.48;12.52;;;25.00;64.20;;;;;;4990067;28;20402;-71
2022/08/19 10:22:19;;;;;;;12.23;11.00;;;25.00;63.50;;;;;;5000147;28;20403;-71
2022/08/19 10:24:49;;;;;;;13.10;12.10;;;25.00;64.10;;;;;;4980990;28;20404;-71
2022/08/19 10:27:15;;;;;;;13.17;12.07;;;25.00;64.00;;;;;;4982691;28;20497;-71
2022/08/19 10:29:41;;;;;;;12.15;11.10;;;25.00;64.20;;;;;;4983744;28;20533;-71
2022/08/19 10:32:08;;;;;;;12.85;11.73;;;25.00;63.20;;;;;;4983411;28;20900;-71
2022/08/19 10:34:38;;;;;;;13.60;12.40;;;25.00;64.30;;;;;;4998260;28;20404;-70
2022/08/19 10:37:05;;;;;;;12.63;11.40;;;25.00;63.60;;;;;;4986988;28;20491;-70
2022/08/19 10:39:34;;;;;;;14.90;10.90;;;25.00;63.70;;;;;;5013826;28;20453;-71
2022/08/19 10:42:05;;;;;;;13.43;12.18;;;24.90;63.90;;;;;;5005264;28;20400;-72
2022/08/19 10:44:32;;;;;;;13.25;12.23;;;24.90;63.90;;;;;;5004593;28;20419;-71
2022/08/19 10:46:58;;;;;;;12.88;11.68;;;25.00;63.60;;;;;;4997353;28;20426;-71
2022/08/19 10:49:24;;;;;;;12.17;11.10;;;24.90;64.00;;;;;;5008290;28;20881;-70
2022/08/19 10:57:18;;;;;;;11.77;10.57;;;24.90;63.60;;;;;;5006952;28;20389;-72
2022/08/19 10:59:44;;;;;;;11.47;10.47;;;24.90;63.50;;;;;;5009142;28;20400;-69
2022/08/19 11:02:11;;;;;;;12.00;10.80;;;24.90;63.40;;;;;;5008640;28;20396;-69
2022/08/19 11:04:39;;;;;;;12.30;10.93;;;24.90;63.50;;;;;;5004840;28;20887;-74
2022/08/19 11:07:06;;;;;;;11.40;10.48;;;24.90;63.60;;;;;;5011998;28;20424;-69
2022/08/19 11:09:41;;;;;;;10.75;9.85;;;24.90;63.50;;;;;;4987869;28;20400;-71
2022/08/19 11:12:07;;;;;;;11.68;10.57;;;24.90;63.60;;;;;;4998982;28;20402;-74
2022/08/19 11:14:34;;;;;;;10.65;9.80;;;24.90;63.70;;;;;;5003480;28;20400;-75
2022/08/19 11:17:01;;;;;;;11.07;10.13;;;24.90;63.80;;;;;;4999475;28;20902;-72
2022/08/19 11:19:27;;;;;;;11.02;9.93;;;24.90;63.40;;;;;;5000154;28;20434;-70
2022/08/19 11:21:54;;;;;;;11.77;10.55;;;24.90;63.50;;;;;;5002209;28;20925;-70
2022/08/19 11:24:24;;;;;;;11.20;10.32;;;24.90;63.50;;;;;;5002327;28;20413;-70
2022/08/19 11:26:52;;;;;;;11.07;9.97;;;25.00;63.40;;;;;;5002858;28;20936;-70
2022/08/19 11:29:20;;;;;;;12.20;11.02;;;25.00;63.80;;;;;;5001684;28;20405;-69
2022/08/19 11:31:49;;;;;;;10.75;9.63;;;25.00;64.10;;;;;;5003908;28;20387;-71
2022/08/19 11:34:25;;;;;;;11.20;10.30;;;25.00;63.90;;;;;;5002336;28;20762;-70
2022/08/19 11:36:51;;;;;;;10.98;10.05;;;25.00;64.30;;;;;;5001814;28;20783;-69
2022/08/19 11:39:19;;;;;;;9.63;8.82;;;25.00;64.20;;;;;;5001920;28;20416;-69
2022/08/19 11:41:46;;;;;;;10.63;9.82;;;25.00;63.50;;;;;;4984045;28;20917;-69
2022/08/19 11:44:13;;;;;;;12.38;9.57;;;25.00;63.30;;;;;;5000841;28;20406;-73
2022/08/19 11:46:40;;;;;;;10.30;9.40;;;25.00;63.50;;;;;;4998071;28;20437;-70
2022/08/19 11:49:07;;;;;;;11.02;10.05;;;25.00;63.50;;;;;;5003263;28;20404;-70
2022/08/19 11:51:33;;;;;;;10.30;9.45;;;25.00;63.30;;;;;;5000327;28;20809;-72
2022/08/19 11:54:00;;;;;;;10.30;9.40;;;25.00;63.80;;;;;;5002309;28;20409;-69
2022/08/19 11:56:27;;;;;;;10.98;10.18;;;25.00;63.90;;;;;;5002957;28;20400;-70
2022/08/19 11:58:53;;;;;;;10.90;10.00;;;25.00;63.00;;;;;;5004993;28;20392;-70
2022/08/19 12:01:21;;;;;;;11.00;10.00;;;25.10;63.70;;;;;;4998805;28;20400;-70
2022/08/19 12:03:49;;;;;;;9.20;8.48;;;25.10;63.00;;;;;;5000986;28;20406;-70
2022/08/19 12:06:28;;;;;;;9.80;9.00;;;25.10;63.20;;;;;;5005745;28;20483;-74
2022/08/19 12:08:56;;;;;;;12.13;9.18;;;25.10;63.10;;;;;;5000069;28;20395;-70
2022/08/19 12:11:23;;;;;;;8.82;7.85;;;25.10;63.30;;;;;;4997010;28;20404;-70
2022/08/19 12:13:50;;;;;;;11.25;8.82;;;25.10;63.20;;;;;;5003271;28;20473;-75
2022/08/19 12:16:18;;;;;;;9.30;8.50;;;25.10;63.00;;;;;;5001208;28;20401;-71
2022/08/19 12:18:46;;;;;;;9.90;9.05;;;25.10;62.90;;;;;;5001367;28;20400;-70
2022/08/19 12:21:16;;;;;;;9.32;8.45;;;25.10;63.10;;;;;;5002388;28;20849;-70
2022/08/19 12:23:43;;;;;;;11.07;9.98;;;25.10;63.50;;;;;;4993877;28;20398;-71
2022/08/19 12:26:10;;;;;;;9.60;8.60;;;25.20;63.40;;;;;;5002620;28;20500;-71
2022/08/19 12:28:36;;;;;;;10.50;9.03;;;25.10;62.60;;;;;;5002825;28;20530;-70
2022/08/19 12:31:02;;;;;;;9.80;8.90;;;25.10;62.80;;;;;;5000078;28;20403;-70
2022/08/19 12:33:28;;;;;;;10.50;8.98;;;25.10;62.60;;;;;;5001815;28;20415;-71
2022/08/19 12:35:59;;;;;;;10.70;9.73;;;25.10;62.70;;;;;;5000499;28;20395;-70
2022/08/19 12:38:25;;;;;;;9.80;8.95;;;25.10;63.10;;;;;;4997090;28;20404;-70
2022/08/19 12:40:51;;;;;;;10.40;9.30;;;25.10;63.30;;;;;;4995255;28;20394;-71
2022/08/19 12:43:19;;;;;;;12.57;11.27;;;25.10;63.10;;;;;;4981507;28;20403;-71
2022/08/19 12:45:45;;;;;;;11.45;10.30;;;25.20;63.60;;;;;;4980551;28;20438;-70
2022/08/19 12:48:11;;;;;;;10.88;9.75;;;25.20;63.50;;;;;;4996147;28;20402;-72
2022/08/19 12:50:41;;;;;;;12.07;10.70;;;25.20;63.30;;;;;;4981924;28;20403;-71
2022/08/19 12:53:07;;;;;;;11.88;10.63;;;25.20;63.50;;;;;;4978479;28;20475;-70
2022/08/19 12:55:33;;;;;;;11.48;9.82;;;25.20;63.40;;;;;;4978866;28;20861;-71